Flight Track Log - Related Links

Times and Time Zones

All times are in EDT time to prevent confusion due to time zone crossing. See the UCA4794 flight status page for this flight to view local times or setup timezone preferences in your user account.

Time Position Orientation Groundspeed Altitude Reporting Facility
EDT Latitude Longitude Course Direction KTS MPH feet Rate Location/Type
Thu 01:18:13 PM 43.1075 -76.1217 279° West 95 109 1,100  Level Boston Center
Thu 01:18:32 PM 43.1092 -76.1367 279° West 109 125 1,600 1,443 Climbing Boston Center
Thu 01:19:32 PM 43.1194 -76.1894 285° West 162 186 3,000 1,419 Climbing Boston Center
Thu 01:20:05 PM 43.1275 -76.2178 291° West 141 162 3,800 1,361 Climbing Boston Center
Thu 01:21:09 PM 43.1461 -76.2767 293° West 154 177 5,200 1,500 Climbing Boston Center
Thu 01:22:09 PM 43.1603 -76.3356 288° West 162 186 6,900 1,537 Climbing Boston Center
Thu 01:23:10 PM 43.1764 -76.3928 291° West 163 188 8,300 1,256 Climbing Boston Center
Thu 01:24:18 PM 43.1972 -76.4667 291° West 170 196 9,600 1,015 Climbing Cleveland Center
Thu 01:25:20 PM 43.2158 -76.5356 290° West 185 213 10,500 919 Climbing Cleveland Center
Thu 01:26:22 PM 43.2119 -76.6114 266° West 206 237 11,500 1,113 Climbing Cleveland Center
Thu 01:27:24 PM 43.1814 -76.6947 243° Southwest 219 252 12,800 1,161 Climbing Cleveland Center
Thu 01:28:26 PM 43.1564 -76.7678 245° Southwest 215 247 13,900 1,016 Climbing Cleveland Center
Thu 01:29:28 PM 43.1303 -76.8450 245° Southwest 222 255 14,900 968 Climbing Cleveland Center
Thu 01:30:30 PM 43.1022 -76.9225 244° Southwest 228 262 15,900 532 Climbing Cleveland Center
Thu 01:31:32 PM 43.0739 -77.0056 245° Southwest 241 277 16,000 48 Climbing Cleveland Center
Thu 01:32:34 PM 43.0428 -77.0961 245° Southwest 263 303 16,000  Level Cleveland Center
Thu 01:33:36 PM 43.0050 -77.2033 244° Southwest 261 300 16,000  Level Cleveland Center
Thu 01:34:38 PM 42.9747 -77.2903 245° Southwest 256 295 16,000  Level Cleveland Center
Thu 01:35:41 PM 42.9439 -77.3772 244° Southwest 255 293 16,000  Level Cleveland Center
Thu 01:36:43 PM 42.9133 -77.4636 244° Southwest 254 292 16,000  Level Cleveland Center
Thu 01:37:45 PM 42.8819 -77.5506 244° Southwest 257 296 16,000  Level Cleveland Center
Thu 01:38:47 PM 42.8456 -77.6533 244° Southwest 254 292 16,000  Level Cleveland Center
Thu 01:39:49 PM 42.8153 -77.7383 244° Southwest 252 290 16,000 48 Level Cleveland Center
Thu 01:40:51 PM 42.7847 -77.8228 244° Southwest 253 291 16,100 48 Climbing Cleveland Center
Thu 01:41:53 PM 42.7542 -77.9069 244° Southwest 252 290 16,100  Level Cleveland Center
Thu 01:42:55 PM 42.7178 -78.0117 245° Southwest 258 297 16,100  Level Cleveland Center
Thu 01:43:57 PM 42.6864 -78.0981 244° Southwest 257 296 16,100  Level Cleveland Center
Thu 01:44:59 PM 42.6544 -78.1844 243° Southwest 257 296 16,100  Level Cleveland Center
Thu 01:46:02 PM 42.6225 -78.2722 244° Southwest 260 299 16,100  Level Cleveland Center
Thu 01:47:04 PM 42.5903 -78.3600 244° Southwest 261 300 16,100  Level Cleveland Center
Thu 01:48:06 PM 42.5592 -78.4475 244° Southwest 258 297 16,100 -48 Level Cleveland Center
Thu 01:49:08 PM 42.5200 -78.5517 243° Southwest 259 298 16,000 -48 Descending Cleveland Center
Thu 01:50:10 PM 42.4875 -78.6392 243° Southwest 262 302 16,000  Level Cleveland Center
Thu 01:51:12 PM 42.4558 -78.7267 244° Southwest 260 299 16,000 48 Level Cleveland Center
Thu 01:52:14 PM 42.4236 -78.8142 244° Southwest 259 298 16,100 48 Climbing Cleveland Center
Thu 01:53:16 PM 42.3864 -78.9161 244° Southwest 260 299 16,100  Level Cleveland Center
Thu 01:54:18 PM 42.3542 -79.0028 243° Southwest 260 299 16,100  Level Cleveland Center
Thu 01:55:20 PM 42.3222 -79.0881 243° Southwest 258 297 16,100  Level Cleveland Center
Thu 01:56:23 PM 42.2892 -79.1728 242° Southwest 257 296 16,100  Level Cleveland Center
Thu 01:57:25 PM 42.2581 -79.2583 244° Southwest 256 295 16,100 -48 Level Cleveland Center
Thu 01:58:27 PM 42.2183 -79.3606 242° Southwest 257 296 16,000 -48 Descending Cleveland Center
Thu 01:59:29 PM 42.1864 -79.4464 243° Southwest 260 299 16,000 48 Level Cleveland Center
Thu 02:00:31 PM 42.1533 -79.5314 242° Southwest 259 298 16,100 48 Climbing Cleveland Center
Thu 02:01:33 PM 42.1222 -79.6153 243° Southwest 255 293 16,100  Level Cleveland Center
Thu 02:02:35 PM 42.0892 -79.7031 243° Southwest 263 303 16,100 -48 Level Cleveland Center
Thu 02:03:37 PM 42.0506 -79.8058 243° Southwest 258 297 16,000  Descending Cleveland Center
Thu 02:04:39 PM 42.0172 -79.8889 242° Southwest 255 293 16,100 48 Climbing Cleveland Center
Thu 02:05:41 PM 41.9839 -79.9747 242° Southwest 258 297 16,100  Level Cleveland Center
Thu 02:06:43 PM 41.9478 -80.0658 242° Southwest 259 298 16,100  Level Cleveland Center
Thu 02:07:46 PM 41.9156 -80.1531 244° Southwest 258 297 16,100  Level Cleveland Center
Thu 02:08:48 PM 41.8806 -80.2383 241° Southwest 259 298 16,100  Level Cleveland Center
Thu 02:09:50 PM 41.8475 -80.3256 243° Southwest 260 299 16,100  Level Cleveland Center
Thu 02:10:52 PM 41.8133 -80.4114 242° Southwest 261 300 16,100  Level Cleveland Center
Thu 02:11:54 PM 41.7792 -80.4975 242° Southwest 260 299 16,100 -484 Level Cleveland Center
Thu 02:12:56 PM 41.7400 -80.6014 243° Southwest 264 304 15,100 -1,016 Descending Cleveland Center
Thu 02:13:58 PM 41.7044 -80.6894 242° Southwest 269 310 14,000 -1,016 Descending Cleveland Center
Thu 02:15:00 PM 41.6717 -80.7733 242° Southwest 256 295 13,000 -1,016 Descending Cleveland Center
Thu 02:16:02 PM 41.6406 -80.8536 243° Southwest 244 281 11,900 -1,161 Descending Cleveland Center
Thu 02:16:33 PM 41.6242 -80.8981 244° Southwest 240 276 11,200 -677 Descending Cleveland Center
Thu 02:17:04 PM 41.6081 -80.9328 238° Southwest 241 277 11,200 -500 Level Cleveland Center
Thu 02:17:33 PM 41.5922 -80.9772 245° Southwest 240 276 10,700 -968 Descending Cleveland Center
Thu 02:18:06 PM 41.5767 -81.0122 239° Southwest 241 277 10,200 -1,180 Descending Cleveland Center
Thu 02:18:34 PM 41.5603 -81.0564 244° Southwest 239 275 9,500 -968 Descending Cleveland Center
Thu 02:19:08 PM 41.5450 -81.0911 240° Southwest 240 276 9,200 -327 Descending Cleveland Center
Thu 02:19:29 PM 41.5311 -81.1272 243° Southwest 235 270 9,200 -667 Level Cleveland Center
Thu 02:20:11 PM 41.5319 -81.1828 271° West 226 260 8,500 -984 Descending Cleveland Center
Thu 02:20:30 PM 41.5369 -81.2064 286° West 218 251 8,200 -968 Descending Cleveland Center
Thu 02:21:13 PM 41.5453 -81.2611 282° West 216 249 7,500 -1,100 Descending Cleveland Center
Thu 02:21:30 PM 41.5508 -81.2894 285° West 211 243 7,100 -1,161 Descending Cleveland Center
Thu 02:22:15 PM 41.5547 -81.3378 276° West 211 243 6,300 -1,082 Descending Cleveland Center
Thu 02:22:31 PM 41.5589 -81.3633 282° West 207 238 6,000 -677 Descending Cleveland Center
Thu 02:23:17 PM 41.5567 -81.4133 267° West 205 236 5,600 -689 Descending Cleveland Center
Thu 02:23:32 PM 41.5544 -81.4381 263° West 213 245 5,300 -871 Descending Cleveland Center
Thu 02:24:19 PM 41.5464 -81.4883 258° West 204 235 4,700 -885 Descending Cleveland Center
Thu 02:24:33 PM 41.5456 -81.5150 268° West 203 234 4,400 -677 Descending Cleveland Center
Thu 02:25:21 PM 41.5414 -81.5594 263° West 199 229 4,000 -400 Descending Cleveland Center
Thu 02:25:33 PM 41.5439 -81.5817 279° West 175 201 4,000 -97 Level Cleveland Center
Thu 02:26:23 PM 41.5467 -81.6294 274° West 171 197 3,900  Descending Cleveland Center
Thu 02:26:40 PM 41.5400 -81.6481 244° Southwest 165 190 4,000  Climbing Cleveland Center
Thu 02:27:25 PM 41.5181 -81.6817 229° Southwest 174 200 3,900 -109 Descending Cleveland Center
Thu 02:27:35 PM 41.5150 -81.6917 248° West 181 208 3,900 -774 Level Cleveland Center
Thu 02:28:27 PM 41.4883 -81.7303 227° Southwest 172 198 3,100 -985 Descending Cleveland Center
Thu 02:28:42 PM 41.4806 -81.7447 234° Southwest 166 191 2,800 -871 Descending Cleveland Center
Thu 02:29:29 PM 41.4597 -81.7750 227° Southwest 164 189 2,200 -787 Descending Cleveland Center
Thu 02:29:43 PM 41.4536 -81.7878 237° Southwest 143 165 2,000 -677 Descending Cleveland Center
Thu 02:30:31 PM 41.4369 -81.8114 227° Southwest 140 161 1,500 -689 Descending Cleveland Center
Thu 02:30:44 PM 41.4314 -81.8233 238° Southwest 118 136 1,300 -571 Descending Cleveland Center
Thu 02:31:34 PM 41.4164 -81.8439 226° Southwest 123 142 900 -480 Descending Cleveland Center
Thu 02:33:00 PM 41.4000 -81.8500 252° West  Level FlightAware Approximate

Login

Don't have an account? Register now (free) for customized features, flight alerts, and more!